Time;durP1;ratioP1;P1;durP2;ratioP2;P2;SDS_P1;SDS_P2;PMS_P1;PMS_P2;Temp;Humidity;BMP_temperature;BMP_pressure;BME280_temperature;BME280_humidity;BME280_pressure;Samples;Min_cycle;Max_cycle;Signal;HPM_P1;HPM_P2
2023/03/21 00:01:05;;;;;;;13.93;8.20;;;9.80;99.90;;;;;;4860134;29;20635;-59
2023/03/21 00:03:35;;;;;;;15.30;8.23;;;9.80;99.90;;;;;;4859491;29;20247;-59
2023/03/21 00:06:07;;;;;;;16.33;7.97;;;9.80;99.90;;;;;;4859781;29;20242;-60
2023/03/21 00:08:35;;;;;;;15.23;8.37;;;9.90;99.90;;;;;;4857763;29;20223;-59
2023/03/21 00:11:06;;;;;;;18.93;8.30;;;9.90;99.90;;;;;;4855381;29;20227;-59
2023/03/21 00:13:37;;;;;;;13.07;7.33;;;9.90;99.90;;;;;;4851775;29;20256;-58
2023/03/21 00:16:07;;;;;;;16.53;7.80;;;9.90;99.90;;;;;;4857581;29;20604;-59
2023/03/21 00:18:45;;;;;;;15.27;8.17;;;9.90;99.90;;;;;;4853264;29;20670;-60
2023/03/21 00:21:15;;;;;;;17.53;8.33;;;9.90;99.90;;;;;;4849283;29;20223;-60
2023/03/21 00:24:04;;;;;;;14.93;8.37;;;9.90;99.90;;;;;;4857150;29;20241;-59
2023/03/21 00:26:37;;;;;;;15.13;8.03;;;9.90;99.90;;;;;;4858319;29;20234;-60
2023/03/21 00:29:05;;;;;;;17.87;8.63;;;9.90;99.90;;;;;;4858410;29;20231;-60
2023/03/21 00:31:34;;;;;;;14.73;7.53;;;10.00;99.90;;;;;;4861469;29;20592;-58
2023/03/21 00:34:03;;;;;;;14.53;8.13;;;9.90;99.90;;;;;;4853170;29;20212;-60
2023/03/21 00:36:32;;;;;;;14.40;7.90;;;9.90;99.90;;;;;;4849323;29;20228;-59
2023/03/21 00:39:00;;;;;;;12.80;7.60;;;9.80;99.90;;;;;;4849642;29;20303;-59
2023/03/21 00:41:28;;;;;;;13.57;7.30;;;9.80;99.90;;;;;;4855151;29;20231;-59
2023/03/21 00:44:14;;;;;;;14.67;7.43;;;9.80;99.90;;;;;;4853125;29;20706;-59
2023/03/21 00:46:43;;;;;;;12.33;7.23;;;9.90;99.90;;;;;;4854603;29;20196;-59
2023/03/21 00:49:32;;;;;;;9.33;6.80;;;9.90;99.90;;;;;;4856117;29;20282;-59
2023/03/21 00:52:01;;;;;;;14.37;7.30;;;9.90;99.90;;;;;;4854312;29;20211;-60
2023/03/21 00:54:47;;;;;;;11.80;6.90;;;9.90;99.90;;;;;;4858077;29;20234;-59
2023/03/21 00:57:15;;;;;;;10.13;6.97;;;9.90;99.90;;;;;;4857640;29;20267;-59
2023/03/21 00:59:43;;;;;;;11.20;6.83;;;9.90;99.90;;;;;;4856659;29;20220;-60
2023/03/21 01:02:13;;;;;;;18.37;6.97;;;9.90;99.90;;;;;;4855819;29;20224;-59
2023/03/21 01:04:43;;;;;;;14.03;7.03;;;9.90;99.90;;;;;;4858343;29;20238;-59
2023/03/21 01:07:11;;;;;;;10.37;6.77;;;10.00;99.90;;;;;;4853003;29;20196;-59
2023/03/21 01:09:40;;;;;;;12.90;7.07;;;9.90;99.90;;;;;;4854491;29;20283;-60
2023/03/21 01:12:09;;;;;;;12.03;7.10;;;9.90;99.90;;;;;;4852630;29;20283;-59
2023/03/21 01:14:37;;;;;;;13.50;6.67;;;9.90;99.90;;;;;;4851274;29;20239;-59
2023/03/21 01:17:06;;;;;;;16.03;7.63;;;9.90;99.90;;;;;;4855001;29;20227;-59
2023/03/21 01:19:34;;;;;;;19.30;7.50;;;9.80;99.90;;;;;;4854671;29;20200;-58
2023/03/21 01:22:20;;;;;;;10.10;6.53;;;9.90;99.90;;;;;;4851537;29;20602;-59
2023/03/21 01:24:48;;;;;;;12.40;6.40;;;9.90;99.90;;;;;;4853062;29;20279;-60
2023/03/21 01:27:25;;;;;;;12.97;7.17;;;9.80;99.90;;;;;;4852199;29;20590;-59
2023/03/21 01:29:53;;;;;;;10.33;7.10;;;9.80;99.90;;;;;;4852755;29;20220;-60
2023/03/21 01:32:22;;;;;;;13.13;6.40;;;9.80;99.90;;;;;;4855556;29;20239;-59
2023/03/21 01:34:50;;;;;;;11.47;6.33;;;9.70;99.90;;;;;;4850251;29;20231;-59
2023/03/21 01:37:19;;;;;;;15.33;6.83;;;9.80;99.90;;;;;;4853969;29;20191;-60
2023/03/21 01:39:48;;;;;;;13.00;6.47;;;9.80;99.90;;;;;;4852666;29;20238;-59
2023/03/21 01:42:16;;;;;;;12.80;6.47;;;9.70;99.90;;;;;;4852408;29;20227;-59
2023/03/21 01:44:56;;;;;;;13.80;6.80;;;9.80;99.90;;;;;;4852400;29;20223;-59
2023/03/21 01:47:25;;;;;;;11.70;6.00;;;9.80;99.90;;;;;;4851401;29;20655;-59
2023/03/21 01:49:56;;;;;;;16.47;7.00;;;9.80;99.90;;;;;;4852871;29;20231;-59
2023/03/21 01:52:29;;;;;;;14.53;6.73;;;9.90;99.90;;;;;;4854074;29;20199;-59
2023/03/21 01:55:10;;;;;;;9.70;6.17;;;9.90;99.90;;;;;;4852989;29;20726;-59
2023/03/21 01:57:45;;;;;;;15.00;6.50;;;9.90;99.90;;;;;;4854293;29;22056;-60
2023/03/21 02:00:32;;;;;;;12.73;6.67;;;9.90;99.90;;;;;;4856792;29;20690;-59
2023/03/21 02:03:02;;;;;;;12.83;6.30;;;9.80;99.90;;;;;;4852904;29;20243;-59
2023/03/21 02:05:52;;;;;;;9.87;6.20;;;9.80;99.90;;;;;;4852641;29;20271;-59
2023/03/21 02:08:23;;;;;;;11.40;5.97;;;9.80;99.90;;;;;;4857156;29;20636;-60
2023/03/21 02:11:07;;;;;;;12.17;5.90;;;9.70;99.90;;;;;;4848869;29;20238;-59
2023/03/21 02:13:35;;;;;;;16.87;6.23;;;9.70;99.90;;;;;;4854910;29;20283;-59
2023/03/21 02:16:13;;;;;;;11.90;6.40;;;9.70;99.90;;;;;;4851102;29;20259;-59
2023/03/21 02:18:48;;;;;;;12.57;6.40;;;9.60;99.90;;;;;;4849763;29;20975;-59
2023/03/21 02:21:52;;;;;;;17.73;6.87;;;9.60;99.90;;;;;;4856924;29;20297;-59
2023/03/21 02:24:59;;;;;;;9.93;6.50;;;9.50;99.90;;;;;;4854289;29;20788;-60
2023/03/21 02:27:40;;;;;;;15.07;6.40;;;9.50;99.90;;;;;;4853585;29;20227;-59
2023/03/21 02:30:35;;;;;;;13.53;6.23;;;9.50;99.90;;;;;;4855196;29;20286;-60
2023/03/21 02:33:52;;;;;;;12.20;6.33;;;9.50;99.90;;;;;;4852427;29;20318;-60
2023/03/21 02:36:28;;;;;;;17.40;6.10;;;9.40;99.90;;;;;;4853095;29;20318;-59
2023/03/21 02:39:07;;;;;;;12.37;6.10;;;9.40;99.90;;;;;;4853736;29;20230;-60
2023/03/21 02:41:47;;;;;;;11.37;5.90;;;9.50;99.90;;;;;;4852636;29;20702;-59
2023/03/21 02:44:21;;;;;;;11.30;6.37;;;9.50;99.90;;;;;;4854711;29;20231;-59
2023/03/21 02:46:55;;;;;;;9.93;6.20;;;9.60;99.90;;;;;;4854176;29;20218;-59
2023/03/21 02:49:41;;;;;;;14.93;6.93;;;9.60;99.90;;;;;;4853759;29;20709;-59
2023/03/21 02:52:14;;;;;;;12.80;5.77;;;9.60;99.90;;;;;;4854347;29;20203;-59
2023/03/21 02:55:03;;;;;;;17.83;6.80;;;9.60;99.90;;;;;;4848231;29;20228;-59
2023/03/21 02:57:33;;;;;;;11.03;5.73;;;9.60;99.90;;;;;;4853895;29;20729;-60
2023/03/21 03:00:13;;;;;;;15.07;6.00;;;9.70;99.90;;;;;;4849899;29;20712;-59
2023/03/21 03:02:48;;;;;;;18.40;6.30;;;9.70;99.90;;;;;;4858601;29;20546;-59
2023/03/21 03:05:26;;;;;;;14.80;6.23;;;9.70;99.90;;;;;;4853854;29;20338;-59
2023/03/21 03:08:11;;;;;;;15.07;6.67;;;9.80;99.90;;;;;;4856724;29;20230;-59
2023/03/21 03:10:54;;;;;;;9.77;5.90;;;9.80;99.90;;;;;;4853514;29;20595;-59
2023/03/21 03:13:35;;;;;;;14.77;6.47;;;9.90;99.90;;;;;;4855769;29;20275;-59
2023/03/21 03:16:12;;;;;;;12.13;6.40;;;9.90;99.90;;;;;;4854952;29;20276;-59
2023/03/21 03:18:48;;;;;;;12.00;6.63;;;9.90;99.90;;;;;;4857331;29;20270;-60
2023/03/21 03:21:20;;;;;;;12.97;5.77;;;10.00;99.90;;;;;;4860096;29;21046;-59
2023/03/21 03:23:52;;;;;;;14.27;6.20;;;10.00;99.90;;;;;;4857157;29;20223;-59
2023/03/21 03:26:28;;;;;;;11.27;6.30;;;10.00;99.90;;;;;;4851350;29;20235;-59
2023/03/21 03:29:00;;;;;;;12.77;6.40;;;10.10;99.90;;;;;;4858815;29;20273;-59
2023/03/21 03:31:33;;;;;;;13.83;6.00;;;10.10;99.90;;;;;;4858250;29;20667;-59
2023/03/21 03:34:05;;;;;;;12.37;5.80;;;10.10;99.90;;;;;;4852382;29;20206;-60
2023/03/21 03:36:38;;;;;;;11.07;5.67;;;10.10;99.90;;;;;;4861554;29;20224;-59
2023/03/21 03:39:09;;;;;;;13.53;5.87;;;10.10;99.90;;;;;;4856902;29;20223;-59
2023/03/21 03:41:46;;;;;;;10.37;6.23;;;10.10;99.90;;;;;;4859702;29;20223;-60
2023/03/21 03:44:36;;;;;;;11.97;5.50;;;10.10;99.90;;;;;;4855389;29;20783;-59
2023/03/21 03:47:08;;;;;;;12.07;5.90;;;10.20;99.90;;;;;;4857298;29;20254;-59
2023/03/21 03:49:46;;;;;;;16.33;6.00;;;10.10;99.90;;;;;;4857891;29;20551;-58
2023/03/21 03:52:21;;;;;;;11.27;5.83;;;10.10;99.90;;;;;;4858322;29;20723;-59
2023/03/21 03:54:51;;;;;;;10.43;5.90;;;10.00;99.90;;;;;;4852822;29;20890;-59
2023/03/21 03:57:22;;;;;;;12.30;5.67;;;10.10;99.90;;;;;;4859030;29;20247;-59
2023/03/21 03:59:50;;;;;;;15.07;6.30;;;10.10;99.90;;;;;;4854710;29;20703;-59
2023/03/21 04:02:19;;;;;;;13.17;6.00;;;10.10;99.90;;;;;;4857723;29;20250;-60
2023/03/21 04:04:51;;;;;;;13.13;6.37;;;10.10;99.90;;;;;;4859179;29;20310;-59
2023/03/21 04:07:21;;;;;;;17.87;6.60;;;10.10;99.90;;;;;;4857207;29;20761;-60
2023/03/21 04:09:49;;;;;;;18.33;6.50;;;10.20;99.90;;;;;;4856694;29;20228;-59
2023/03/21 04:12:17;;;;;;;14.47;5.73;;;10.20;99.90;;;;;;4856543;29;20223;-59
2023/03/21 04:14:47;;;;;;;13.87;6.27;;;10.20;99.90;;;;;;4849228;29;20279;-59
2023/03/21 04:17:16;;;;;;;12.80;6.13;;;10.30;99.90;;;;;;4858615;29;20247;-59
2023/03/21 04:19:45;;;;;;;14.27;6.27;;;10.30;99.90;;;;;;4854625;29;20273;-59
2023/03/21 04:22:14;;;;;;;14.47;6.23;;;10.30;99.90;;;;;;4859943;29;20636;-59
2023/03/21 04:24:43;;;;;;;12.43;6.17;;;10.30;99.90;;;;;;4856053;29;20281;-59
2023/03/21 04:27:12;;;;;;;9.27;6.40;;;10.30;99.90;;;;;;4855768;29;20227;-59
2023/03/21 04:29:41;;;;;;;13.10;7.10;;;10.20;99.90;;;;;;4858505;29;20223;-59
2023/03/21 04:32:18;;;;;;;22.30;7.20;;;10.20;99.90;;;;;;4857323;29;20234;-59
2023/03/21 04:34:52;;;;;;;14.13;6.57;;;10.20;99.90;;;;;;4861785;29;20283;-59
2023/03/21 04:37:23;;;;;;;15.13;7.40;;;10.10;99.90;;;;;;4856673;29;20202;-59
2023/03/21 04:39:51;;;;;;;16.77;7.17;;;10.20;99.90;;;;;;4858272;29;20644;-59
2023/03/21 04:42:20;;;;;;;15.03;7.33;;;10.10;99.90;;;;;;4854284;29;20702;-59
2023/03/21 04:44:49;;;;;;;13.73;7.47;;;10.10;99.90;;;;;;4849820;29;20223;-59
2023/03/21 04:47:20;;;;;;;17.93;7.70;;;10.10;99.90;;;;;;4854554;29;20231;-60
2023/03/21 04:49:48;;;;;;;12.67;7.73;;;10.00;99.90;;;;;;4859986;29;20230;-59
2023/03/21 04:52:17;;;;;;;19.43;8.57;;;10.00;99.90;;;;;;4842889;29;20272;-59
2023/03/21 04:54:45;;;;;;;18.03;7.20;;;10.00;99.90;;;;;;4856301;29;20223;-60
2023/03/21 04:57:14;;;;;;;19.17;8.90;;;10.00;99.90;;;;;;4855413;29;20226;-59
2023/03/21 04:59:42;;;;;;;18.97;8.87;;;10.00;99.90;;;;;;4856781;29;20227;-60
2023/03/21 05:02:11;;;;;;;16.13;8.43;;;10.00;99.90;;;;;;4856641;29;20714;-59
2023/03/21 05:04:41;;;;;;;17.17;8.43;;;10.00;99.90;;;;;;4855912;29;20199;-59
2023/03/21 05:07:09;;;;;;;25.60;8.67;;;10.00;99.90;;;;;;4856679;29;20414;-59
2023/03/21 05:09:37;;;;;;;22.40;8.93;;;10.00;99.90;;;;;;4856454;29;20259;-59
2023/03/21 05:12:06;;;;;;;14.33;7.87;;;10.00;99.90;;;;;;4854535;29;20702;-60
2023/03/21 05:14:34;;;;;;;19.10;8.70;;;10.00;99.90;;;;;;4857428;29;20292;-59
2023/03/21 05:17:03;;;;;;;23.97;9.83;;;10.00;99.90;;;;;;4856108;29;20215;-59
2023/03/21 05:19:34;;;;;;;18.10;9.80;;;10.00;99.90;;;;;;4855343;29;20287;-59
2023/03/21 05:22:07;;;;;;;19.87;9.90;;;10.00;99.90;;;;;;4854710;29;20263;-59
2023/03/21 05:24:36;;;;;;;16.13;9.13;;;10.00;99.90;;;;;;4857049;29;20263;-60
2023/03/21 05:27:05;;;;;;;20.53;10.07;;;9.90;99.90;;;;;;4857836;29;20227;-60
2023/03/21 05:29:34;;;;;;;17.57;9.77;;;9.90;99.90;;;;;;4852888;29;20242;-60
2023/03/21 05:32:02;;;;;;;25.07;10.73;;;9.80;99.90;;;;;;4857309;29;20568;-60
2023/03/21 05:34:31;;;;;;;25.17;11.13;;;9.80;99.90;;;;;;4857470;29;20247;-60
2023/03/21 05:37:00;;;;;;;20.33;10.10;;;9.70;99.90;;;;;;4856196;29;20388;-61
2023/03/21 05:39:29;;;;;;;23.10;9.93;;;9.80;99.90;;;;;;4854842;29;20231;-60
2023/03/21 05:41:57;;;;;;;21.57;10.03;;;9.80;99.90;;;;;;4854441;29;20287;-60
2023/03/21 05:44:26;;;;;;;17.97;9.07;;;9.80;99.90;;;;;;4853956;29;20231;-60
2023/03/21 05:46:54;;;;;;;21.67;9.43;;;9.70;99.90;;;;;;4847745;29;20714;-60
2023/03/21 05:49:23;;;;;;;21.97;9.83;;;9.60;99.90;;;;;;4854543;29;20212;-60
2023/03/21 05:51:51;;;;;;;21.03;10.33;;;9.60;99.90;;;;;;4854419;29;20231;-60
2023/03/21 05:54:19;;;;;;;23.67;11.50;;;9.50;99.90;;;;;;4849599;29;20572;-60
2023/03/21 05:56:49;;;;;;;31.97;11.90;;;9.50;99.90;;;;;;4852721;29;20620;-60
2023/03/21 05:59:17;;;;;;;32.00;12.50;;;9.50;99.90;;;;;;4855604;29;22203;-60
2023/03/21 06:01:45;;;;;;;32.03;13.33;;;9.50;99.90;;;;;;4855598;29;20240;-59
2023/03/21 06:04:14;;;;;;;24.30;12.57;;;9.50;99.90;;;;;;4853886;29;20306;-60
2023/03/21 06:06:42;;;;;;;32.13;13.67;;;9.50;99.90;;;;;;4852638;29;20227;-60
2023/03/21 06:09:10;;;;;;;27.90;12.43;;;9.50;99.90;;;;;;4856084;29;20291;-60
2023/03/21 06:11:44;;;;;;;29.93;12.80;;;9.50;99.90;;;;;;4850203;29;20313;-60
2023/03/21 06:14:13;;;;;;;31.57;12.97;;;9.60;99.90;;;;;;4855642;29;20235;-60
2023/03/21 06:16:42;;;;;;;27.33;12.50;;;9.60;99.90;;;;;;4850425;29;20270;-59
2023/03/21 06:19:10;;;;;;;30.30;12.93;;;9.50;99.90;;;;;;4852606;29;20208;-60
2023/03/21 06:21:38;;;;;;;27.50;13.03;;;9.50;99.90;;;;;;4853149;29;20322;-59
2023/03/21 06:24:07;;;;;;;28.60;13.07;;;9.60;99.90;;;;;;4854838;29;20773;-60
2023/03/21 06:26:35;;;;;;;24.33;12.03;;;9.50;99.90;;;;;;4852640;29;20247;-60
2023/03/21 06:29:04;;;;;;;25.13;12.43;;;9.50;99.90;;;;;;4848082;29;20235;-60
2023/03/21 06:31:34;;;;;;;31.60;12.87;;;9.50;99.90;;;;;;4850114;29;20307;-59
2023/03/21 06:34:02;;;;;;;30.20;13.00;;;9.50;99.90;;;;;;4857715;29;20211;-60
2023/03/21 06:36:32;;;;;;;27.73;11.73;;;9.50;99.90;;;;;;4857526;29;20229;-60
2023/03/21 06:39:00;;;;;;;21.60;11.70;;;9.60;99.90;;;;;;4857733;29;20702;-60
2023/03/21 06:41:29;;;;;;;28.50;11.90;;;9.60;99.90;;;;;;4859299;29;20223;-59
2023/03/21 06:43:57;;;;;;;25.00;10.97;;;9.70;99.90;;;;;;4854563;29;20283;-60
2023/03/21 06:46:25;;;;;;;29.80;11.10;;;9.70;99.90;;;;;;4855624;29;20532;-57
2023/03/21 06:48:55;;;;;;;23.17;11.07;;;9.80;99.90;;;;;;4857561;29;20219;-59
2023/03/21 06:51:23;;;;;;;19.13;10.73;;;9.80;99.90;;;;;;4858168;29;20666;-59
2023/03/21 06:53:51;;;;;;;18.93;9.63;;;9.80;99.90;;;;;;4858531;29;20227;-59
2023/03/21 06:56:20;;;;;;;24.00;9.83;;;9.80;99.90;;;;;;4856931;29;20231;-59
2023/03/21 06:58:48;;;;;;;22.53;10.17;;;9.90;99.90;;;;;;4847329;29;20603;-59
2023/03/21 07:01:17;;;;;;;15.07;9.60;;;9.90;99.90;;;;;;4857589;29;20196;-60
2023/03/21 07:03:46;;;;;;;25.40;9.00;;;10.00;99.90;;;;;;4861265;29;20223;-59
2023/03/21 07:06:15;;;;;;;20.37;9.40;;;10.10;99.90;;;;;;4859907;29;20227;-59
2023/03/21 07:08:44;;;;;;;23.43;9.50;;;10.10;99.90;;;;;;4860171;29;20243;-60
2023/03/21 07:11:12;;;;;;;18.63;9.30;;;10.10;99.90;;;;;;4852240;29;20231;-59
2023/03/21 07:13:40;;;;;;;23.90;9.27;;;10.10;99.90;;;;;;4860035;29;20271;-59
2023/03/21 07:16:09;;;;;;;14.53;8.47;;;10.10;99.90;;;;;;4866745;29;20572;-59
2023/03/21 07:18:38;;;;;;;15.27;8.77;;;10.00;99.90;;;;;;4859511;29;20221;-59
2023/03/21 07:21:07;;;;;;;18.10;8.73;;;10.10;99.90;;;;;;4858776;29;20227;-60
2023/03/21 07:23:37;;;;;;;11.60;7.27;;;10.10;99.90;;;;;;4859587;29;20636;-59
2023/03/21 07:26:06;;;;;;;12.97;7.93;;;10.10;99.90;;;;;;4860351;29;20227;-60
2023/03/21 07:28:34;;;;;;;14.77;7.20;;;10.10;99.90;;;;;;4859148;29;20211;-59
2023/03/21 07:31:05;;;;;;;18.73;7.77;;;10.10;99.90;;;;;;4862419;29;20655;-59
2023/03/21 07:33:35;;;;;;;16.80;6.80;;;10.10;99.90;;;;;;4856248;29;20260;-60
2023/03/21 07:36:04;;;;;;;14.07;7.37;;;10.20;99.90;;;;;;4849717;29;20263;-59
2023/03/21 07:38:32;;;;;;;12.77;7.20;;;10.30;99.90;;;;;;4858907;29;20255;-60
2023/03/21 07:41:02;;;;;;;11.67;6.27;;;10.20;99.90;;;;;;4859210;29;20706;-59
2023/03/21 07:43:30;;;;;;;9.57;6.13;;;10.30;99.90;;;;;;4859953;29;20196;-59
2023/03/21 07:45:59;;;;;;;16.77;5.63;;;10.40;99.90;;;;;;4853498;29;20204;-60
2023/03/21 07:48:27;;;;;;;12.07;5.70;;;10.40;99.90;;;;;;4860649;29;20225;-59
2023/03/21 07:50:55;;;;;;;12.83;6.50;;;10.40;99.90;;;;;;4852871;29;20231;-59
2023/03/21 07:53:24;;;;;;;17.87;6.83;;;10.40;99.90;;;;;;4854823;29;20279;-59
2023/03/21 07:55:54;;;;;;;10.37;5.53;;;10.40;99.90;;;;;;4851976;29;20279;-59
2023/03/21 07:58:24;;;;;;;14.10;5.73;;;10.40;99.90;;;;;;4853467;29;20625;-60
2023/03/21 08:00:52;;;;;;;9.23;5.40;;;10.50;99.90;;;;;;4856147;29;20231;-59
2023/03/21 08:03:22;;;;;;;9.97;5.63;;;10.50;99.90;;;;;;4855467;29;20284;-60
2023/03/21 08:05:51;;;;;;;10.97;5.83;;;10.50;99.90;;;;;;4853697;29;20227;-59
2023/03/21 08:08:19;;;;;;;6.70;5.20;;;10.50;99.90;;;;;;4857559;29;20230;-59
2023/03/21 08:10:47;;;;;;;7.93;5.10;;;10.60;99.90;;;;;;4856131;29;20228;-59
2023/03/21 08:13:16;;;;;;;15.67;5.60;;;10.60;99.90;;;;;;4858684;29;20315;-60
2023/03/21 08:15:45;;;;;;;12.20;5.87;;;10.70;99.90;;;;;;4855674;29;20631;-59
2023/03/21 08:18:14;;;;;;;9.67;5.30;;;10.70;99.90;;;;;;4855175;29;20267;-60
2023/03/21 08:20:42;;;;;;;8.67;5.13;;;10.80;99.90;;;;;;4857453;29;20250;-60
2023/03/21 08:23:12;;;;;;;7.93;5.53;;;10.90;99.90;;;;;;4858457;29;20247;-59
2023/03/21 08:25:40;;;;;;;12.40;5.57;;;11.00;99.90;;;;;;4856771;29;20199;-59
2023/03/21 08:28:09;;;;;;;8.50;5.17;;;11.10;99.90;;;;;;4854410;29;20285;-59
2023/03/21 08:30:38;;;;;;;10.37;5.10;;;11.20;99.90;;;;;;4854259;29;20691;-59
2023/03/21 08:33:12;;;;;;;11.57;5.67;;;11.40;99.90;;;;;;4856408;29;20720;-60
2023/03/21 08:35:41;;;;;;;9.37;4.90;;;11.50;99.90;;;;;;4852585;29;20220;-59
2023/03/21 08:38:10;;;;;;;15.30;5.90;;;11.60;99.90;;;;;;4854493;29;20245;-59
2023/03/21 08:40:38;;;;;;;11.47;5.03;;;11.60;99.90;;;;;;4852990;29;20227;-59
2023/03/21 08:43:06;;;;;;;11.30;5.40;;;11.70;99.90;;;;;;4854358;29;20203;-60
2023/03/21 08:45:34;;;;;;;7.23;4.93;;;11.70;99.90;;;;;;4857102;29;20301;-60
2023/03/21 08:48:03;;;;;;;12.67;5.30;;;11.80;99.90;;;;;;4854900;29;20866;-60
2023/03/21 08:50:33;;;;;;;11.93;5.30;;;11.90;99.90;;;;;;4855125;29;20563;-59
2023/03/21 08:53:01;;;;;;;10.67;5.17;;;12.00;99.90;;;;;;4856519;29;20253;-59
2023/03/21 08:55:30;;;;;;;12.13;4.70;;;12.10;99.90;;;;;;4856524;29;20200;-59
2023/03/21 08:57:58;;;;;;;12.60;5.13;;;12.10;99.90;;;;;;4854686;29;20663;-59
2023/03/21 09:00:27;;;;;;;11.27;5.50;;;12.00;99.90;;;;;;4852670;29;20220;-59
2023/03/21 09:02:57;;;;;;;11.67;5.27;;;12.00;99.90;;;;;;4854481;29;20267;-59
2023/03/21 09:05:27;;;;;;;7.57;5.17;;;12.00;99.90;;;;;;4856733;29;20228;-59
2023/03/21 09:07:56;;;;;;;7.70;4.87;;;11.90;99.90;;;;;;4851313;29;20258;-59
2023/03/21 09:10:25;;;;;;;13.33;5.17;;;12.00;99.90;;;;;;4850638;29;20294;-60
2023/03/21 09:12:55;;;;;;;8.93;5.60;;;12.00;99.90;;;;;;4853634;29;20258;-59
2023/03/21 09:15:27;;;;;;;11.43;5.10;;;12.10;99.90;;;;;;4860416;29;20279;-59
2023/03/21 09:17:57;;;;;;;10.43;5.33;;;12.10;99.90;;;;;;4857620;29;20231;-59
2023/03/21 09:20:29;;;;;;;12.83;5.33;;;12.10;99.90;;;;;;4858956;29;20750;-59
2023/03/21 09:23:00;;;;;;;7.70;4.50;;;12.10;99.90;;;;;;4855914;29;20227;-59
2023/03/21 09:25:29;;;;;;;11.20;5.30;;;12.20;99.90;;;;;;4851217;29;20284;-59
2023/03/21 09:27:59;;;;;;;9.33;5.07;;;12.20;99.90;;;;;;4856801;29;20202;-60
2023/03/21 09:30:28;;;;;;;14.03;5.07;;;12.20;99.90;;;;;;4852310;29;20774;-59
2023/03/21 09:32:56;;;;;;;9.47;4.77;;;12.30;99.90;;;;;;4853254;29;20231;-60
2023/03/21 09:35:25;;;;;;;6.87;4.90;;;12.40;99.90;;;;;;4854001;29;20228;-59
2023/03/21 09:37:57;;;;;;;12.57;5.37;;;12.40;99.90;;;;;;4854848;29;20268;-59
2023/03/21 09:40:42;;;;;;;9.27;4.93;;;12.40;99.90;;;;;;4853038;29;20227;-54
2023/03/21 09:43:22;;;;;;;11.43;4.70;;;12.50;99.90;;;;;;4853020;29;20199;-60
2023/03/21 09:45:57;;;;;;;8.50;5.20;;;12.60;99.90;;;;;;4852507;29;21723;-59
2023/03/21 09:48:35;;;;;;;11.57;4.87;;;12.60;99.90;;;;;;4852705;29;20230;-59
2023/03/21 09:51:16;;;;;;;10.00;4.90;;;12.60;99.90;;;;;;4852081;29;20262;-60
2023/03/21 09:53:47;;;;;;;9.13;4.20;;;12.70;99.90;;;;;;4854176;29;20227;-59
2023/03/21 09:56:17;;;;;;;8.43;4.50;;;12.70;99.90;;;;;;4852212;29;20228;-59
2023/03/21 09:58:51;;;;;;;14.80;4.83;;;12.70;99.90;;;;;;4854657;29;20315;-59
2023/03/21 10:01:27;;;;;;;9.20;4.53;;;12.80;99.90;;;;;;4853948;29;21390;-60
2023/03/21 10:03:59;;;;;;;10.57;4.67;;;12.80;99.90;;;;;;4854299;29;20221;-60
2023/03/21 10:06:29;;;;;;;8.33;5.03;;;12.90;99.90;;;;;;4853593;29;20733;-60
2023/03/21 10:09:00;;;;;;;8.87;4.70;;;12.90;99.90;;;;;;4855857;29;20245;-59
2023/03/21 10:11:38;;;;;;;7.07;4.83;;;12.80;99.90;;;;;;4855388;29;20227;-59
2023/03/21 10:14:13;;;;;;;8.50;4.93;;;12.80;99.90;;;;;;4857471;29;20721;-59
2023/03/21 10:16:43;;;;;;;7.57;4.77;;;12.90;99.90;;;;;;4856463;29;20243;-59
2023/03/21 10:19:14;;;;;;;7.73;4.03;;;13.00;99.90;;;;;;4856734;29;20613;-60
2023/03/21 10:21:47;;;;;;;7.27;4.67;;;13.00;99.90;;;;;;4854705;29;20227;-59
2023/03/21 10:24:31;;;;;;;11.40;5.33;;;13.20;99.90;;;;;;4857420;29;20226;-60
2023/03/21 10:27:03;;;;;;;7.87;4.30;;;13.30;99.90;;;;;;4850647;29;20288;-59
2023/03/21 10:29:42;;;;;;;12.03;4.97;;;13.40;99.90;;;;;;4853884;29;20240;-59
2023/03/21 10:32:13;;;;;;;9.47;4.30;;;13.60;99.90;;;;;;4853491;29;20231;-59
2023/03/21 10:34:46;;;;;;;7.37;4.63;;;13.60;99.90;;;;;;4857198;29;20283;-59
2023/03/21 10:37:15;;;;;;;8.07;4.63;;;13.70;99.90;;;;;;4856213;29;20200;-60
2023/03/21 10:39:47;;;;;;;10.23;4.37;;;13.80;99.90;;;;;;4854825;29;20230;-60
2023/03/21 10:42:20;;;;;;;8.57;4.80;;;13.90;99.90;;;;;;4838479;29;20223;-60
2023/03/21 10:44:52;;;;;;;8.87;4.60;;;13.80;99.90;;;;;;4856582;29;20548;-60
2023/03/21 10:47:22;;;;;;;9.20;4.10;;;13.70;99.90;;;;;;4857189;29;20231;-60
2023/03/21 10:49:50;;;;;;;9.70;4.13;;;13.60;99.90;;;;;;4852571;29;20233;-59
2023/03/21 10:52:42;;;;;;;5.10;4.00;;;13.40;99.90;;;;;;4851920;29;20199;-59
2023/03/21 10:55:21;;;;;;;6.93;4.20;;;13.40;99.90;;;;;;4858066;29;20195;-60
2023/03/21 10:57:56;;;;;;;8.47;4.67;;;13.40;99.90;;;;;;4850493;29;20611;-60
2023/03/21 11:00:28;;;;;;;10.97;4.50;;;13.50;99.90;;;;;;4851411;29;20588;-60
2023/03/21 11:02:58;;;;;;;7.27;4.83;;;13.60;99.90;;;;;;4854091;29;20295;-59
2023/03/21 11:05:35;;;;;;;8.83;4.90;;;13.40;99.90;;;;;;4857565;29;20231;-59
2023/03/21 11:08:06;;;;;;;8.87;4.27;;;13.80;99.90;;;;;;4853274;29;20310;-60
2023/03/21 11:10:37;;;;;;;4.53;4.10;;;14.60;99.90;;;;;;4849707;29;20228;-59
2023/03/21 11:13:16;;;;;;;7.97;4.50;;;15.10;99.90;;;;;;4857627;29;20654;-60
2023/03/21 11:15:52;;;;;;;6.50;3.97;;;16.00;99.90;;;;;;4856843;29;20837;-61
2023/03/21 11:18:23;;;;;;;7.73;4.13;;;16.90;99.90;;;;;;4851754;29;20226;-60
2023/03/21 11:20:54;;;;;;;9.87;4.27;;;16.90;99.90;;;;;;4853439;29;21258;-60
2023/03/21 11:23:28;;;;;;;9.27;4.83;;;17.00;99.90;;;;;;4853065;29;20694;-60
2023/03/21 11:25:59;;;;;;;4.93;4.20;;;16.70;99.90;;;;;;4857238;29;20218;-60
2023/03/21 11:28:36;;;;;;;7.67;4.50;;;16.20;99.90;;;;;;4853653;29;20221;-59
2023/03/21 11:31:08;;;;;;;7.83;4.50;;;15.50;99.90;;;;;;4856554;29;20589;-60
2023/03/21 11:33:40;;;;;;;6.27;4.40;;;15.00;99.90;;;;;;4856051;29;20315;-60
2023/03/21 11:36:26;;;;;;;8.30;4.50;;;14.70;99.90;;;;;;4857307;29;20220;-60
2023/03/21 11:38:58;;;;;;;9.90;4.93;;;14.50;99.90;;;;;;4853091;29;20781;-60
2023/03/21 11:41:30;;;;;;;11.17;5.00;;;14.20;99.90;;;;;;4851836;29;20227;-60
2023/03/21 11:44:01;;;;;;;6.17;5.43;;;14.20;99.90;;;;;;4855382;29;20243;-60
2023/03/21 11:46:32;;;;;;;5.67;5.17;;;14.20;99.90;;;;;;4853354;29;20204;-59
2023/03/21 11:49:01;;;;;;;7.30;5.33;;;14.40;99.90;;;;;;4855756;29;20203;-60
2023/03/21 11:51:34;;;;;;;9.87;5.13;;;14.40;99.90;;;;;;4853830;29;21043;-60
2023/03/21 11:54:11;;;;;;;10.57;4.97;;;14.60;99.90;;;;;;4854262;29;20380;-59
2023/03/21 11:56:44;;;;;;;6.77;5.40;;;14.90;99.90;;;;;;4853168;29;20227;-60
2023/03/21 11:59:26;;;;;;;9.47;4.77;;;15.10;99.90;;;;;;4855031;29;20231;-60
2023/03/21 12:02:21;;;;;;;8.30;5.10;;;15.30;99.90;;;;;;4853502;29;20257;-60
2023/03/21 12:04:54;;;;;;;8.90;4.93;;;15.30;99.90;;;;;;4852422;29;20244;-59
2023/03/21 12:07:46;;;;;;;6.50;4.93;;;15.20;99.90;;;;;;4850920;29;20223;-60
2023/03/21 12:10:40;;;;;;;8.37;5.20;;;15.20;99.90;;;;;;4850056;29;20259;-60
2023/03/21 12:13:22;;;;;;;9.77;5.00;;;15.20;99.90;;;;;;4852526;29;20798;-60
2023/03/21 12:16:02;;;;;;;7.13;4.83;;;15.50;99.90;;;;;;4852410;29;20253;-60
2023/03/21 12:18:59;;;;;;;9.17;4.53;;;15.60;99.90;;;;;;4849865;29;20368;-60
2023/03/21 12:21:34;;;;;;;5.30;4.80;;;16.20;99.90;;;;;;4854115;29;20253;-60
2023/03/21 12:24:09;;;;;;;5.73;4.97;;;16.60;99.90;;;;;;4832317;29;20266;-60
2023/03/21 12:26:43;;;;;;;9.40;5.20;;;16.00;99.90;;;;;;4831571;29;20242;-60
2023/03/21 12:29:26;;;;;;;7.37;5.37;;;15.70;99.90;;;;;;4829634;29;20222;-59
2023/03/21 12:32:10;;;;;;;6.37;5.03;;;15.50;99.90;;;;;;4835007;29;20657;-59
2023/03/21 12:35:02;;;;;;;10.63;5.23;;;15.30;99.90;;;;;;4834204;29;20271;-59
2023/03/21 12:37:37;;;;;;;6.73;5.10;;;15.30;99.90;;;;;;4832006;29;20206;-59
2023/03/21 12:40:14;;;;;;;8.70;5.00;;;15.30;99.90;;;;;;4831646;29;20231;-60
2023/03/21 12:43:05;;;;;;;7.67;4.73;;;15.20;99.90;;;;;;4833036;29;20250;-60
2023/03/21 12:45:36;;;;;;;7.03;4.60;;;15.30;99.90;;;;;;4832310;29;20308;-60
2023/03/21 12:48:23;;;;;;;9.57;5.10;;;15.40;99.90;;;;;;4827848;29;20228;-60
2023/03/21 12:50:56;;;;;;;9.07;4.53;;;15.30;99.90;;;;;;4830215;29;20236;-59
2023/03/21 12:53:35;;;;;;;8.63;4.67;;;15.00;99.90;;;;;;4831719;29;20225;-59
2023/03/21 12:56:09;;;;;;;9.20;4.77;;;14.90;99.90;;;;;;4826900;29;20231;-59
2023/03/21 12:58:45;;;;;;;10.67;5.43;;;14.80;99.90;;;;;;4829786;29;20239;-59
2023/03/21 13:01:17;;;;;;;6.37;4.23;;;14.90;99.90;;;;;;4831251;29;20281;-60
2023/03/21 13:03:51;;;;;;;4.97;4.47;;;14.90;99.90;;;;;;4829720;29;20568;-60
2023/03/21 13:06:25;;;;;;;8.33;4.33;;;14.80;99.90;;;;;;4835526;29;20639;-60
2023/03/21 13:08:58;;;;;;;7.83;4.57;;;14.80;99.90;;;;;;4831802;29;20255;-60
2023/03/21 13:11:30;;;;;;;5.83;4.47;;;14.80;99.90;;;;;;4830180;29;20244;-59